This is the latest recevied weather packets stored in our database for station/object OH2TH. If no packets are shown the sender has not sent any weather packets the latest 10 day(s).
| Time | Temp. | Humidity | Pressure | Rain* | Wind** | Luminosity | Snow |
|---|---|---|---|---|---|---|---|
| 1778077801 | 11.11° C | 39% | 101 hPa | - | - | - | - |
| 1778076901 | 11.11° C | 35% | 101 hPa | - | - | - | - |
| 1778076001 | 11.11° C | 38% | 101 hPa | - | - | - | - |
| 1778075101 | 11.11° C | 36% | 101 hPa | - | - | - | - |
| 1778074201 | 11.11° C | 38% | 101 hPa | - | - | - | - |
| 1778073300 | 11.11° C | 37% | 101 hPa | - | - | - | - |
| 1778072400 | 11.11° C | 37% | 101 hPa | - | - | - | - |
| 1778071505 | 11.11° C | 39% | 101 hPa | - | - | - | - |
| 1778070605 | 11.11° C | 39% | 101 hPa | - | - | - | - |
| 1778069705 | 11.11° C | 37% | 101 hPa | - | - | - | - |
| 1778068804 | 10° C | 39% | 101 hPa | - | - | - | - |
| 1778067905 | 11.11° C | 39% | 101 hPa | - | - | - | - |
| 1778067004 | 12.22° C | 35% | 101 hPa | - | - | - | - |
| 1778066104 | 12.22° C | 32% | 101 hPa | - | - | - | - |
| 1778065204 | 12.78° C | 25% | 101 hPa | - | - | - | - |
| 1778064304 | 12.78° C | 25% | 101 hPa | - | - | - | - |
| 1778063404 | 12.78° C | 26% | 101 hPa | - | - | - | - |
| 1778062504 | 12.22° C | 28% | 101 hPa | - | - | - | - |
| 1778061603 | 12.22° C | 27% | 101 hPa | - | - | - | - |
| 1778060703 | 11.11° C | 33% | 101 hPa | - | - | - | - |
| 1778059803 | 11.11° C | 30% | 101 hPa | - | - | - | - |
| 1778058903 | 11.11° C | 33% | 101 hPa | - | - | - | - |
| 1778058003 | 11.11° C | 31% | 101 hPa | - | - | - | - |
| 1778057103 | 12.22° C | 31% | 101 hPa | - | - | - | - |
| 1778056203 | 12.22° C | 30% | 101 hPa | - | - | - | - |
* Rain since midnight (hover to see other rain measurements)
** Current wind speed in m/s (hover to see current wind gust speed)